createdAt,value
2022-10-17T00:01:30.783Z,14.26
2022-10-17T00:03:57.073Z,14.27
2022-10-17T00:06:23.349Z,14.28
2022-10-17T00:08:50.965Z,14.28
2022-10-17T00:11:18.527Z,14.31
2022-10-17T00:13:45.252Z,14.32
2022-10-17T00:16:12.060Z,14.32
2022-10-17T00:18:38.503Z,14.32
2022-10-17T00:21:05.144Z,14.31
2022-10-17T00:23:31.483Z,14.31
2022-10-17T00:26:00.237Z,14.32
2022-10-17T00:28:26.572Z,14.34
2022-10-17T00:30:56.047Z,14.36
2022-10-17T00:33:22.330Z,14.37
2022-10-17T00:35:48.634Z,14.39
2022-10-17T00:38:14.911Z,14.42
2022-10-17T00:40:41.213Z,14.43
2022-10-17T00:43:15.230Z,14.44
2022-10-17T00:45:41.498Z,14.45
2022-10-17T00:48:09.261Z,14.45
2022-10-17T00:50:36.545Z,14.45
2022-10-17T00:53:04.509Z,14.47
2022-10-17T00:55:31.673Z,14.48
2022-10-17T00:58:00.553Z,14.48
2022-10-17T01:00:28.244Z,14.48
2022-10-17T01:02:54.559Z,14.48
2022-10-17T01:05:21.277Z,14.50
2022-10-17T01:07:48.972Z,14.49
2022-10-17T01:10:15.540Z,14.49
2022-10-17T01:12:48.573Z,14.48
2022-10-17T01:15:21.742Z,14.48
2022-10-17T01:17:56.661Z,14.47
2022-10-17T01:20:40.747Z,14.47
2022-10-17T01:23:15.822Z,14.47
2022-10-17T01:25:50.211Z,14.48
2022-10-17T01:28:20.790Z,14.48
2022-10-17T01:30:55.637Z,14.46
2022-10-17T01:33:27.592Z,14.46
2022-10-17T01:35:57.374Z,14.45
2022-10-17T01:38:28.917Z,14.46
2022-10-17T01:40:59.283Z,14.46
2022-10-17T01:43:29.324Z,14.46
2022-10-17T01:45:59.427Z,14.44
2022-10-17T01:48:28.383Z,14.42
2022-10-17T01:50:58.528Z,14.41
2022-10-17T01:53:28.766Z,14.41
2022-10-17T01:58:28.003Z,14.43
2022-10-17T02:00:55.551Z,14.43
2022-10-17T02:03:24.324Z,14.41
2022-10-17T02:05:50.685Z,14.41
2022-10-17T02:08:24.765Z,14.42
2022-10-17T02:10:55.013Z,14.41
2022-10-17T02:13:27.750Z,14.41
2022-10-17T02:16:07.797Z,14.39
2022-10-17T02:18:46.874Z,14.40
2022-10-17T02:21:16.675Z,14.39
2022-10-17T02:23:47.442Z,14.37
2022-10-17T02:26:17.721Z,14.36
2022-10-17T02:28:47.234Z,14.35
2022-10-17T02:31:15.157Z,14.34
2022-10-17T02:33:44.963Z,14.33
2022-10-17T02:36:13.745Z,14.33
2022-10-17T02:38:40.602Z,14.32
2022-10-17T02:41:09.382Z,14.32
2022-10-17T02:43:36.930Z,14.31
2022-10-17T02:46:03.563Z,14.31
2022-10-17T02:48:34.828Z,14.33
2022-10-17T02:51:05.185Z,14.33
2022-10-17T02:53:34.383Z,14.33
2022-10-17T02:56:04.717Z,14.33
2022-10-17T02:58:32.103Z,14.33
2022-10-17T03:00:58.824Z,14.31
2022-10-17T03:03:25.825Z,14.31
2022-10-17T03:05:52.533Z,14.31
2022-10-17T03:08:20.361Z,14.33
2022-10-17T03:10:46.710Z,14.38
2022-10-17T03:13:13.035Z,14.40
2022-10-17T03:15:39.312Z,14.42
2022-10-17T03:18:05.608Z,14.43
2022-10-17T03:20:32.011Z,14.45
2022-10-17T03:22:58.389Z,14.48
2022-10-17T03:25:26.065Z,14.49
2022-10-17T03:27:52.446Z,14.51
2022-10-17T03:30:18.756Z,14.54
2022-10-17T03:32:45.040Z,14.54
2022-10-17T03:35:15.067Z,14.58
2022-10-17T03:37:41.542Z,14.59
2022-10-17T03:40:08.145Z,14.59
2022-10-17T03:42:35.849Z,14.60
2022-10-17T03:45:02.172Z,14.61
2022-10-17T03:47:28.775Z,14.61
2022-10-17T03:49:55.244Z,14.62
2022-10-17T03:52:21.548Z,14.63
2022-10-17T03:54:49.156Z,14.64
2022-10-17T03:57:15.427Z,14.66
2022-10-17T03:59:43.085Z,14.65
2022-10-17T04:02:09.384Z,14.67
2022-10-17T04:04:35.674Z,14.68
2022-10-17T04:07:02.112Z,14.71
2022-10-17T04:09:28.409Z,14.75
2022-10-17T04:11:54.704Z,14.75
2022-10-17T04:14:21.061Z,14.77
2022-10-17T04:16:48.708Z,14.80
2022-10-17T04:19:15.013Z,14.82
2022-10-17T04:21:41.319Z,14.85
2022-10-17T04:24:10.004Z,14.88
2022-10-17T04:26:36.417Z,14.89
2022-10-17T04:29:02.733Z,14.89
2022-10-17T04:31:29.048Z,14.91
2022-10-17T04:33:56.753Z,14.93
2022-10-17T04:36:23.109Z,14.95
2022-10-17T04:38:49.417Z,14.96
2022-10-17T04:41:17.110Z,14.97
2022-10-17T04:43:45.637Z,14.96
2022-10-17T04:46:15.428Z,14.98
2022-10-17T04:48:42.273Z,14.99
2022-10-17T04:51:11.968Z,15.01
2022-10-17T04:53:38.901Z,15.00
2022-10-17T04:56:08.646Z,15.03
2022-10-17T04:58:34.946Z,15.03
2022-10-17T05:01:04.182Z,15.01
2022-10-17T05:03:30.532Z,14.98
2022-10-17T05:05:56.811Z,14.96
2022-10-17T05:08:24.430Z,14.93
2022-10-17T05:10:50.772Z,14.90
2022-10-17T05:13:17.116Z,14.90
2022-10-17T05:15:43.551Z,14.88
2022-10-17T05:18:09.822Z,14.85
2022-10-17T05:20:36.148Z,14.84
2022-10-17T05:23:02.441Z,14.85
2022-10-17T05:25:30.124Z,14.85
2022-10-17T05:27:56.403Z,14.90
2022-10-17T05:30:22.701Z,14.92
2022-10-17T05:32:51.577Z,14.93
2022-10-17T05:35:17.861Z,14.94
2022-10-17T05:37:44.151Z,15.00
2022-10-17T05:40:10.962Z,15.04
2022-10-17T05:45:09.965Z,15.08
2022-10-17T05:47:36.267Z,15.08
2022-10-17T05:50:02.566Z,15.10
2022-10-17T05:52:29.014Z,15.11
2022-10-17T05:54:55.462Z,15.11
2022-10-17T05:57:24.221Z,15.11
2022-10-17T05:59:51.852Z,15.14
2022-10-17T06:02:18.250Z,15.12
2022-10-17T06:04:44.642Z,15.10
2022-10-17T06:07:10.962Z,15.08
2022-10-17T06:09:37.354Z,15.06
2022-10-17T06:12:03.677Z,15.06
2022-10-17T06:14:29.963Z,15.07
2022-10-17T06:16:57.659Z,15.09
2022-10-17T06:19:23.954Z,15.12
2022-10-17T06:21:50.257Z,15.14
2022-10-17T06:24:16.536Z,15.15
2022-10-17T06:26:43.288Z,15.17
2022-10-17T06:29:09.705Z,15.19
2022-10-17T06:31:36.109Z,15.21
2022-10-17T06:34:03.809Z,15.24
2022-10-17T06:36:30.086Z,15.29
2022-10-17T06:38:56.361Z,15.34
2022-10-17T06:41:22.653Z,15.38
2022-10-17T06:43:48.933Z,15.42
2022-10-17T06:46:16.150Z,15.47
2022-10-17T06:48:42.716Z,15.52
2022-10-17T06:51:10.664Z,15.55
2022-10-17T06:53:37.573Z,15.57
2022-10-17T06:56:04.058Z,15.60
2022-10-17T06:58:30.644Z,15.64
2022-10-17T07:01:00.977Z,15.67
2022-10-17T07:03:27.768Z,15.70
2022-10-17T07:05:54.417Z,15.73
2022-10-17T07:08:22.068Z,15.77
2022-10-17T07:10:48.469Z,15.79
2022-10-17T07:13:14.836Z,15.84
2022-10-17T07:15:41.592Z,15.88
2022-10-17T07:18:07.864Z,15.90
2022-10-17T07:20:34.212Z,15.91
2022-10-17T07:23:00.513Z,15.94
2022-10-17T07:25:28.453Z,15.97
2022-10-17T07:27:54.754Z,16.03
2022-10-17T07:30:21.570Z,16.11
2022-10-17T07:32:47.857Z,16.15
2022-10-17T07:35:14.836Z,16.22
2022-10-17T07:37:41.121Z,16.31
2022-10-17T07:40:08.242Z,16.37
2022-10-17T07:45:09.403Z,16.52
2022-10-17T07:47:35.713Z,16.61
2022-10-17T07:50:02.036Z,16.68
2022-10-17T07:52:28.555Z,16.78
2022-10-17T07:54:55.009Z,16.88
2022-10-17T07:57:21.268Z,17.01
2022-10-17T07:59:48.923Z,17.09
2022-10-17T08:02:20.280Z,17.20
2022-10-17T08:04:46.573Z,17.31
2022-10-17T08:07:20.967Z,17.41
2022-10-17T08:09:50.576Z,17.46
2022-10-17T08:12:17.256Z,17.54
2022-10-17T08:14:43.602Z,17.59
2022-10-17T08:17:11.393Z,17.66
2022-10-17T08:19:38.221Z,17.74
2022-10-17T08:22:04.699Z,17.80
2022-10-17T08:24:30.999Z,17.85
2022-10-17T08:26:57.295Z,17.85
2022-10-17T08:29:23.867Z,17.85
2022-10-17T08:31:54.093Z,17.85
2022-10-17T08:34:26.216Z,17.81
2022-10-17T08:36:52.483Z,17.83
2022-10-17T08:39:18.784Z,17.82
2022-10-17T08:41:59.554Z,17.84
2022-10-17T08:44:33.244Z,17.87
2022-10-17T08:47:01.659Z,17.91
2022-10-17T08:49:38.217Z,17.96
2022-10-17T08:52:07.110Z,17.97
2022-10-17T08:54:38.606Z,18.02
2022-10-17T08:57:04.947Z,18.01
2022-10-17T08:59:31.270Z,18.02
2022-10-17T09:02:01.157Z,18.00
2022-10-17T09:04:43.242Z,18.00
2022-10-17T09:07:14.915Z,17.98
2022-10-17T09:09:48.324Z,17.95
2022-10-17T09:12:17.364Z,17.93
2022-10-17T09:15:00.017Z,17.92
2022-10-17T09:17:32.986Z,17.89
2022-10-17T09:20:03.667Z,17.86
2022-10-17T09:22:33.716Z,17.84
2022-10-17T09:25:02.373Z,17.81
2022-10-17T09:27:34.069Z,17.76
2022-10-17T09:30:21.362Z,17.74
2022-10-17T09:32:58.681Z,17.71
2022-10-17T09:35:27.476Z,17.67
2022-10-17T09:37:54.157Z,17.62
2022-10-17T09:40:23.808Z,17.59
2022-10-17T09:42:50.248Z,17.54
2022-10-17T09:45:17.847Z,17.51
2022-10-17T09:47:47.025Z,17.47
2022-10-17T09:50:16.043Z,17.45
2022-10-17T09:52:44.094Z,17.43
2022-10-17T09:55:16.943Z,17.42
2022-10-17T09:57:54.095Z,17.39
2022-10-17T10:00:21.799Z,17.35
2022-10-17T10:02:48.111Z,17.33
2022-10-17T10:05:16.066Z,17.31
2022-10-17T10:07:45.417Z,17.28
2022-10-17T10:10:23.404Z,17.27
2022-10-17T10:13:02.333Z,17.25
2022-10-17T10:15:33.603Z,17.23
2022-10-17T10:17:59.926Z,17.21
2022-10-17T10:20:28.685Z,17.19
2022-10-17T10:23:16.417Z,17.17
2022-10-17T10:25:49.652Z,17.15
2022-10-17T10:28:17.069Z,17.12
2022-10-17T10:30:47.314Z,17.10
2022-10-17T10:33:13.718Z,17.08
2022-10-17T10:35:40.021Z,17.08
2022-10-17T10:38:10.635Z,17.08
2022-10-17T10:40:44.192Z,17.09
2022-10-17T10:43:18.468Z,17.11
2022-10-17T10:45:48.991Z,17.15
2022-10-17T10:48:19.300Z,17.18
2022-10-17T10:50:47.090Z,17.20
2022-10-17T10:53:23.272Z,17.22
2022-10-17T10:55:51.064Z,17.24
2022-10-17T10:58:23.843Z,17.25
2022-10-17T11:00:50.651Z,17.26
2022-10-17T11:03:20.861Z,17.28
2022-10-17T11:05:49.585Z,17.30
2022-10-17T11:08:21.405Z,17.35
2022-10-17T11:10:53.556Z,17.36
2022-10-17T11:13:22.073Z,17.35
2022-10-17T11:15:52.707Z,17.35
2022-10-17T11:18:22.271Z,17.34
2022-10-17T11:20:52.620Z,17.35
2022-10-17T11:23:27.810Z,17.37
2022-10-17T11:25:55.109Z,17.37
2022-10-17T11:28:22.951Z,17.39
2022-10-17T11:30:51.419Z,17.42
2022-10-17T11:33:20.227Z,17.44
2022-10-17T11:35:49.093Z,17.48
2022-10-17T11:38:18.400Z,17.51
2022-10-17T11:40:49.103Z,17.54
2022-10-17T11:43:18.595Z,17.57
2022-10-17T11:45:47.313Z,17.57
2022-10-17T11:48:17.056Z,17.57
2022-10-17T11:53:37.491Z,17.58
2022-10-17T11:56:05.677Z,17.58
2022-10-17T11:58:35.793Z,17.57
2022-10-17T12:01:07.258Z,17.57
2022-10-17T12:03:40.145Z,17.59
2022-10-17T12:06:12.480Z,17.62
2022-10-17T12:08:42.656Z,17.66
2022-10-17T12:11:14.883Z,17.68
2022-10-17T12:13:56.058Z,17.69
2022-10-17T12:16:38.992Z,17.71
2022-10-17T12:19:26.644Z,17.73
2022-10-17T12:21:56.954Z,17.72
2022-10-17T12:24:31.131Z,17.72
2022-10-17T12:27:18.749Z,17.73
2022-10-17T12:29:45.076Z,17.74
2022-10-17T12:32:11.978Z,17.75
2022-10-17T12:34:38.760Z,17.77
2022-10-17T12:37:05.066Z,17.81
2022-10-17T12:39:49.277Z,17.83
2022-10-17T12:42:30.785Z,17.83
2022-10-17T12:44:57.253Z,17.85
2022-10-17T12:47:28.105Z,17.87
2022-10-17T12:49:56.697Z,17.90
2022-10-17T12:52:24.841Z,17.90
2022-10-17T12:55:13.093Z,17.92
2022-10-17T12:57:43.707Z,17.95
2022-10-17T13:00:15.827Z,17.95
2022-10-17T13:02:42.259Z,18.00
2022-10-17T13:05:12.486Z,18.02
2022-10-17T13:07:41.179Z,18.03
2022-10-17T13:10:08.069Z,18.05
2022-10-17T13:12:41.132Z,18.06
2022-10-17T13:15:16.324Z,18.06
2022-10-17T13:17:43.831Z,18.06
2022-10-17T13:20:27.557Z,18.04
2022-10-17T13:22:57.448Z,18.01
2022-10-17T13:25:24.753Z,17.99
2022-10-17T13:27:51.198Z,18.00
2022-10-17T13:30:24.764Z,17.98
2022-10-17T13:32:53.490Z,17.97
2022-10-17T13:35:31.709Z,17.98
2022-10-17T13:38:08.613Z,17.96
2022-10-17T13:40:49.083Z,17.95
2022-10-17T13:43:18.696Z,17.93
2022-10-17T13:45:50.209Z,17.91
2022-10-17T13:48:19.216Z,17.89
2022-10-17T13:50:47.145Z,17.88
2022-10-17T13:53:16.333Z,17.87
2022-10-17T13:56:09.776Z,17.86
2022-10-17T13:58:43.295Z,17.85
2022-10-17T14:01:11.992Z,17.82
2022-10-17T14:03:48.169Z,17.82
2022-10-17T14:06:17.025Z,17.82
2022-10-17T14:08:54.717Z,17.82
2022-10-17T14:11:26.246Z,17.81
2022-10-17T14:13:53.380Z,17.80
2022-10-17T14:16:21.574Z,17.79
2022-10-17T14:18:49.319Z,17.81
2022-10-17T14:21:43.927Z,17.82
2022-10-17T14:24:13.069Z,17.81
2022-10-17T14:26:46.968Z,17.82
2022-10-17T14:29:20.412Z,17.81
2022-10-17T14:31:48.120Z,17.82
2022-10-17T14:34:20.006Z,17.85
2022-10-17T14:36:48.698Z,17.86
2022-10-17T14:39:18.742Z,17.87
2022-10-17T14:41:45.846Z,17.89
2022-10-17T14:44:33.262Z,17.92
2022-10-17T14:47:18.197Z,17.91
2022-10-17T14:49:50.599Z,17.90
2022-10-17T14:52:27.583Z,17.88
2022-10-17T14:54:54.162Z,17.87
2022-10-17T14:57:22.739Z,17.83
2022-10-17T14:59:54.302Z,17.80
2022-10-17T15:02:22.954Z,17.78
2022-10-17T15:04:49.245Z,17.75
2022-10-17T15:07:16.165Z,17.73
2022-10-17T15:09:42.955Z,17.72
2022-10-17T15:12:13.638Z,17.69
2022-10-17T15:14:39.913Z,17.67
2022-10-17T15:17:09.880Z,17.65
2022-10-17T15:19:37.508Z,17.63
2022-10-17T15:22:03.776Z,17.62
2022-10-17T15:24:30.077Z,17.61
2022-10-17T15:26:56.402Z,17.60
2022-10-17T15:29:22.702Z,17.58
2022-10-17T15:31:48.980Z,17.57
2022-10-17T15:34:15.256Z,17.56
2022-10-17T15:36:48.432Z,17.55
2022-10-17T15:39:14.700Z,17.55
2022-10-17T15:41:41.007Z,17.53
2022-10-17T15:44:07.294Z,17.54
2022-10-17T15:46:34.585Z,17.52
2022-10-17T15:49:01.934Z,17.52
2022-10-17T15:51:28.238Z,17.50
2022-10-17T15:53:55.882Z,17.48
2022-10-17T15:56:23.463Z,17.45
2022-10-17T15:58:50.189Z,17.45
2022-10-17T16:01:19.996Z,17.43
2022-10-17T16:03:46.325Z,17.41
2022-10-17T16:06:14.244Z,17.39
2022-10-17T16:08:40.763Z,17.36
2022-10-17T16:11:10.256Z,17.34
2022-10-17T16:13:37.579Z,17.31
2022-10-17T16:16:03.933Z,17.29
2022-10-17T16:18:30.225Z,17.26
2022-10-17T16:20:56.563Z,17.24
2022-10-17T16:23:22.866Z,17.22
2022-10-17T16:25:49.153Z,17.20
2022-10-17T16:28:16.801Z,17.18
2022-10-17T16:30:43.620Z,17.15
2022-10-17T16:33:10.374Z,17.14
2022-10-17T16:35:37.650Z,17.12
2022-10-17T16:38:04.274Z,17.10
2022-10-17T16:40:30.575Z,17.09
2022-10-17T16:42:56.916Z,17.07
2022-10-17T16:45:24.556Z,17.05
2022-10-17T16:47:50.875Z,17.03
2022-10-17T16:50:17.275Z,17.00
2022-10-17T16:52:43.554Z,16.98
2022-10-17T16:55:09.940Z,16.96
2022-10-17T16:57:36.437Z,16.95
2022-10-17T17:00:03.092Z,16.94
2022-10-17T17:02:30.889Z,16.92
2022-10-17T17:04:57.391Z,16.90
2022-10-17T17:07:23.710Z,16.89
2022-10-17T17:09:50.003Z,16.87
2022-10-17T17:12:16.304Z,16.85
2022-10-17T17:14:42.606Z,16.84
2022-10-17T17:17:15.399Z,16.83
2022-10-17T17:19:52.249Z,16.81
2022-10-17T17:22:18.543Z,16.78
2022-10-17T17:24:44.835Z,16.78
2022-10-17T17:27:13.441Z,16.76
2022-10-17T17:29:39.995Z,16.75
2022-10-17T17:32:06.301Z,16.73
2022-10-17T17:34:35.511Z,16.72
2022-10-17T17:37:03.229Z,16.71
2022-10-17T17:39:29.530Z,16.69
2022-10-17T17:41:55.822Z,16.66
2022-10-17T17:44:22.429Z,16.66
2022-10-17T17:46:48.740Z,16.63
2022-10-17T17:49:15.050Z,16.62
2022-10-17T17:51:41.421Z,16.60
2022-10-17T17:54:09.236Z,16.61
2022-10-17T17:56:35.545Z,16.61
2022-10-17T17:59:02.349Z,16.59
2022-10-17T18:01:29.499Z,16.57
2022-10-17T18:03:56.478Z,16.56
2022-10-17T18:06:23.129Z,16.54
2022-10-17T18:08:50.428Z,16.54
2022-10-17T18:11:21.150Z,16.51
2022-10-17T18:13:52.500Z,16.49
2022-10-17T18:16:18.817Z,16.47
2022-10-17T18:18:45.305Z,16.47
2022-10-17T18:21:12.434Z,16.47
2022-10-17T18:23:38.816Z,16.46
2022-10-17T18:26:05.746Z,16.47
2022-10-17T18:28:34.998Z,16.45
2022-10-17T18:31:04.534Z,16.43
2022-10-17T18:33:30.828Z,16.45
2022-10-17T18:35:58.384Z,16.44
2022-10-17T18:38:24.762Z,16.43
2022-10-17T18:41:01.260Z,16.44
2022-10-17T18:43:27.730Z,16.42
2022-10-17T18:46:00.959Z,16.41
2022-10-17T18:48:27.242Z,16.40
2022-10-17T18:50:53.528Z,16.41
2022-10-17T18:53:19.834Z,16.39
2022-10-17T18:58:17.341Z,16.36
2022-10-17T19:00:43.612Z,16.35
2022-10-17T19:03:11.276Z,16.34
2022-10-17T19:05:38.127Z,16.33
2022-10-17T19:08:04.648Z,16.32
2022-10-17T19:10:31.982Z,16.29
2022-10-17T19:12:58.315Z,16.27
2022-10-17T19:15:25.965Z,16.26
2022-10-17T19:17:52.578Z,16.24
2022-10-17T19:20:20.183Z,16.23
2022-10-17T19:22:46.511Z,16.23
2022-10-17T19:25:12.862Z,16.20
2022-10-17T19:27:39.165Z,16.20
2022-10-17T19:30:06.063Z,16.19
2022-10-17T19:32:34.298Z,16.18
2022-10-17T19:35:00.851Z,16.17
2022-10-17T19:37:30.022Z,16.18
2022-10-17T19:39:56.451Z,16.15
2022-10-17T19:42:22.721Z,16.14
2022-10-17T19:44:48.997Z,16.13
2022-10-17T19:47:15.288Z,16.13
2022-10-17T19:49:42.899Z,16.11
2022-10-17T19:52:10.707Z,16.11
2022-10-17T19:54:38.669Z,16.11
2022-10-17T19:57:09.505Z,16.10
2022-10-17T19:59:36.844Z,16.09
2022-10-17T20:02:03.192Z,16.08
2022-10-17T20:04:29.669Z,16.07
2022-10-17T20:06:56.017Z,16.05
2022-10-17T20:09:22.441Z,16.05
2022-10-17T20:11:50.213Z,16.01
2022-10-17T20:14:16.528Z,16.01
2022-10-17T20:16:42.822Z,16.00
2022-10-17T20:19:11.642Z,15.99
2022-10-17T20:21:38.177Z,15.99
2022-10-17T20:24:05.573Z,15.97
2022-10-17T20:26:38.244Z,15.96
2022-10-17T20:29:08.033Z,15.95
2022-10-17T20:31:34.500Z,15.94
2022-10-17T20:34:00.818Z,15.93
2022-10-17T20:36:27.129Z,15.92
2022-10-17T20:38:53.631Z,15.93
2022-10-17T20:41:19.900Z,15.92
2022-10-17T20:43:46.248Z,15.90
2022-10-17T20:46:29.411Z,15.90
2022-10-17T20:49:01.705Z,15.89
2022-10-17T20:51:27.982Z,15.88
2022-10-17T20:53:54.328Z,15.87
2022-10-17T20:56:21.507Z,15.84
2022-10-17T20:58:51.634Z,15.82
2022-10-17T21:01:19.703Z,15.81
2022-10-17T21:03:46.761Z,15.79
2022-10-17T21:06:13.811Z,15.77
2022-10-17T21:08:40.121Z,15.77
2022-10-17T21:11:07.013Z,15.75
2022-10-17T21:13:33.324Z,15.75
2022-10-17T21:16:03.810Z,15.74
2022-10-17T21:18:31.435Z,15.72
2022-10-17T21:21:06.093Z,15.72
2022-10-17T21:23:32.402Z,15.72
2022-10-17T21:25:58.970Z,15.70
2022-10-17T21:28:25.355Z,15.70
2022-10-17T21:30:51.664Z,15.69
2022-10-17T21:33:17.937Z,15.68
2022-10-17T21:35:45.577Z,15.64
2022-10-17T21:38:11.863Z,15.64
2022-10-17T21:40:38.164Z,15.63
2022-10-17T21:43:04.461Z,15.63
2022-10-17T21:45:30.751Z,15.61
2022-10-17T21:48:13.257Z,15.59
2022-10-17T21:50:39.971Z,15.58
2022-10-17T21:53:07.653Z,15.56
2022-10-17T21:55:35.502Z,15.54
2022-10-17T21:58:01.787Z,15.50
2022-10-17T22:00:28.109Z,15.49
2022-10-17T22:02:54.416Z,15.48
2022-10-17T22:05:20.704Z,15.46
2022-10-17T22:07:47.472Z,15.43
2022-10-17T22:10:15.224Z,15.39
2022-10-17T22:12:41.492Z,15.36
2022-10-17T22:15:08.328Z,15.37
2022-10-17T22:17:34.648Z,15.37
2022-10-17T22:20:00.943Z,15.36
2022-10-17T22:22:27.250Z,15.35
2022-10-17T22:24:53.548Z,15.34
2022-10-17T22:27:21.162Z,15.33
2022-10-17T22:29:47.458Z,15.32
2022-10-17T22:32:16.346Z,15.30
2022-10-17T22:34:44.864Z,15.29
2022-10-17T22:37:11.155Z,15.28
2022-10-17T22:39:37.437Z,15.27
2022-10-17T22:42:03.823Z,15.25
2022-10-17T22:44:31.444Z,15.22
2022-10-17T22:46:57.735Z,15.20
2022-10-17T22:49:24.056Z,15.19
2022-10-17T22:51:50.356Z,15.17
2022-10-17T22:54:16.712Z,15.17
2022-10-17T22:56:43.007Z,15.18
2022-10-17T22:59:09.324Z,15.17
2022-10-17T23:01:37.014Z,15.17
2022-10-17T23:04:03.356Z,15.16
2022-10-17T23:06:29.653Z,15.16
2022-10-17T23:08:55.919Z,15.15
2022-10-17T23:11:22.215Z,15.16
2022-10-17T23:13:48.529Z,15.16
2022-10-17T23:16:14.840Z,15.15
2022-10-17T23:18:42.481Z,15.15
2022-10-17T23:21:08.826Z,15.14
2022-10-17T23:23:35.123Z,15.13
2022-10-17T23:26:05.596Z,15.12
2022-10-17T23:28:32.010Z,15.11
2022-10-17T23:30:58.355Z,15.14
2022-10-17T23:33:24.645Z,15.15
2022-10-17T23:35:52.276Z,15.16
2022-10-17T23:38:18.592Z,15.17
2022-10-17T23:40:44.872Z,15.18
2022-10-17T23:43:11.167Z,15.19
2022-10-17T23:45:37.572Z,15.20
2022-10-17T23:48:04.428Z,15.21
2022-10-17T23:50:30.716Z,15.21
2022-10-17T23:52:58.336Z,15.21
2022-10-17T23:55:24.657Z,15.22
2022-10-17T23:57:50.952Z,15.22
